createdAt,value
2018-08-04T00:02:17.128Z,8.00
2018-08-04T00:04:45.505Z,7.10
2018-08-04T00:07:14.069Z,7.30
2018-08-04T00:09:42.471Z,6.80
2018-08-04T00:12:11.858Z,9.30
2018-08-04T00:14:40.352Z,7.93
2018-08-04T00:17:08.710Z,6.77
2018-08-04T00:19:37.140Z,7.30
2018-08-04T00:22:05.572Z,7.60
2018-08-04T00:24:33.965Z,7.50
2018-08-04T00:27:02.338Z,7.17
2018-08-04T00:29:30.730Z,8.00
2018-08-04T00:31:59.130Z,7.30
2018-08-04T00:34:27.466Z,7.50
2018-08-04T00:36:55.838Z,7.97
2018-08-04T00:39:24.273Z,7.50
2018-08-04T00:41:52.780Z,7.50
2018-08-04T00:44:21.182Z,6.90
2018-08-04T00:46:49.535Z,8.00
2018-08-04T00:49:17.950Z,7.70
2018-08-04T00:51:46.484Z,7.33
2018-08-04T00:54:15.002Z,7.77
2018-08-04T00:56:43.551Z,7.10
2018-08-04T00:59:11.983Z,7.40
2018-08-04T01:01:40.416Z,6.40
2018-08-04T01:04:08.834Z,7.03
2018-08-04T01:06:36.993Z,7.67
2018-08-04T01:09:07.456Z,7.07
2018-08-04T01:11:35.906Z,7.73
2018-08-04T01:14:04.351Z,7.40
2018-08-04T01:16:32.753Z,7.87
2018-08-04T01:19:01.163Z,6.93
2018-08-04T01:21:29.562Z,7.47
2018-08-04T01:23:57.971Z,7.53
2018-08-04T01:26:26.348Z,7.83
2018-08-04T01:28:54.682Z,7.60
2018-08-04T01:31:23.102Z,7.60
2018-08-04T01:33:51.794Z,8.07
2018-08-04T01:36:20.169Z,7.27
2018-08-04T01:38:48.521Z,8.07
2018-08-04T01:41:16.952Z,7.47
2018-08-04T01:43:45.301Z,7.60
2018-08-04T01:46:13.986Z,7.60
2018-08-04T01:48:42.430Z,7.40
2018-08-04T01:51:10.846Z,7.50
2018-08-04T01:53:39.251Z,8.27
2018-08-04T01:56:07.624Z,7.90
2018-08-04T01:58:35.692Z,7.97
2018-08-04T02:01:04.100Z,9.00
2018-08-04T02:03:32.510Z,7.80
2018-08-04T02:06:00.883Z,8.03
2018-08-04T02:08:29.271Z,7.90
2018-08-04T02:10:57.738Z,7.97
2018-08-04T02:13:26.130Z,7.80
2018-08-04T02:15:54.504Z,8.60
2018-08-04T02:18:22.958Z,7.80
2018-08-04T02:20:51.331Z,7.60
2018-08-04T02:23:19.857Z,8.90
2018-08-04T02:25:48.247Z,7.67
2018-08-04T02:28:16.747Z,7.70
2018-08-04T02:30:45.213Z,9.63
2018-08-04T02:33:13.673Z,7.20
2018-08-04T02:35:42.048Z,8.40
2018-08-04T02:38:10.501Z,7.17
2018-08-04T02:40:38.985Z,7.67
2018-08-04T02:43:07.387Z,7.00
2018-08-04T02:45:35.782Z,7.17
2018-08-04T02:48:04.166Z,6.60
2018-08-04T02:50:32.563Z,7.17
2018-08-04T02:53:01.011Z,6.80
2018-08-04T02:55:29.373Z,7.30
2018-08-04T02:57:57.710Z,7.33
2018-08-04T03:00:26.083Z,6.90
2018-08-04T03:02:54.462Z,6.93
2018-08-04T03:05:22.919Z,7.40
2018-08-04T03:07:51.455Z,7.53
2018-08-04T03:10:19.914Z,7.30
2018-08-04T03:12:48.399Z,9.50
2018-08-04T03:15:16.840Z,8.10
2018-08-04T03:17:45.252Z,7.20
2018-08-04T03:20:13.735Z,8.33
2018-08-04T03:22:42.112Z,7.53
2018-08-04T03:25:10.482Z,7.93
2018-08-04T03:27:38.825Z,7.60
2018-08-04T03:30:07.328Z,7.00
2018-08-04T03:32:35.669Z,6.90
2018-08-04T03:35:04.296Z,7.53
2018-08-04T03:37:32.709Z,7.33
2018-08-04T03:40:01.124Z,8.20
2018-08-04T03:42:29.505Z,7.10
2018-08-04T03:44:57.888Z,6.67
2018-08-04T03:47:25.953Z,7.00
2018-08-04T03:49:54.586Z,7.27
2018-08-04T03:52:23.063Z,7.30
2018-08-04T03:54:51.587Z,7.10
2018-08-04T03:57:20.070Z,7.73
2018-08-04T03:59:48.550Z,7.97
2018-08-04T04:02:16.883Z,6.60
2018-08-04T04:04:45.285Z,7.33
2018-08-04T04:07:13.738Z,8.23
2018-08-04T04:09:42.109Z,7.40
2018-08-04T04:12:10.526Z,7.87
2018-08-04T04:14:38.950Z,7.33
2018-08-04T04:17:07.433Z,7.93
2018-08-04T04:19:35.857Z,7.83
2018-08-04T04:22:04.538Z,7.67
2018-08-04T04:24:32.925Z,7.23
2018-08-04T04:27:01.302Z,7.33
2018-08-04T04:29:29.645Z,7.43
2018-08-04T04:31:58.047Z,8.13
2018-08-04T04:34:27.055Z,8.83
2018-08-04T04:36:55.861Z,8.63
2018-08-04T04:39:29.982Z,7.07
2018-08-04T04:41:59.518Z,8.50
2018-08-04T04:44:28.346Z,8.53
2018-08-04T04:46:58.789Z,7.57
2018-08-04T04:49:27.954Z,7.90
2018-08-04T04:51:57.222Z,8.37
2018-08-04T04:54:29.594Z,7.70
2018-08-04T04:56:58.383Z,6.80
2018-08-04T04:59:27.092Z,8.20
2018-08-04T05:01:56.676Z,7.87
2018-08-04T05:04:26.817Z,7.70
2018-08-04T05:06:58.696Z,7.47
2018-08-04T05:09:28.823Z,7.67
2018-08-04T05:12:02.349Z,8.30
2018-08-04T05:14:31.793Z,8.23
2018-08-04T05:17:01.508Z,8.20
2018-08-04T05:19:31.430Z,9.60
2018-08-04T05:22:00.755Z,8.13
2018-08-04T05:24:29.396Z,7.87
2018-08-04T05:26:58.359Z,7.90
2018-08-04T05:29:27.396Z,7.30
2018-08-04T05:31:56.623Z,8.50
2018-08-04T05:34:25.712Z,7.20
2018-08-04T05:36:54.250Z,10.60
2018-08-04T05:39:24.036Z,8.00
2018-08-04T05:41:53.544Z,8.50
2018-08-04T05:44:22.347Z,8.70
2018-08-04T05:46:51.124Z,8.03
2018-08-04T05:49:19.754Z,8.37
2018-08-04T05:51:48.359Z,8.00
2018-08-04T05:54:16.851Z,8.30
2018-08-04T05:56:46.071Z,8.13
2018-08-04T05:59:14.642Z,8.50
2018-08-04T06:01:43.351Z,8.23
2018-08-04T06:04:12.903Z,12.23
2018-08-04T06:06:41.859Z,9.00
2018-08-04T06:09:11.558Z,8.90
2018-08-04T06:11:40.691Z,9.00
2018-08-04T06:14:09.631Z,9.07
2018-08-04T06:16:38.294Z,9.40
2018-08-04T06:19:08.833Z,8.63
2018-08-04T06:21:37.742Z,8.93
2018-08-04T06:24:06.109Z,8.43
2018-08-04T06:26:34.450Z,8.70
2018-08-04T06:29:02.774Z,8.47
2018-08-04T06:31:31.193Z,9.53
2018-08-04T06:33:59.504Z,8.97
2018-08-04T06:36:27.805Z,8.83
2018-08-04T06:38:56.140Z,8.30
2018-08-04T06:41:24.538Z,9.13
2018-08-04T06:43:52.913Z,9.63
2018-08-04T06:46:21.306Z,9.83
2018-08-04T06:48:49.642Z,8.70
2018-08-04T06:51:18.150Z,8.87
2018-08-04T06:53:46.525Z,8.93
2018-08-04T06:56:14.899Z,9.90
2018-08-04T06:58:43.206Z,8.33
2018-08-04T07:01:11.581Z,12.60
2018-08-04T07:03:39.928Z,12.53
2018-08-04T07:06:08.343Z,9.40
2018-08-04T07:08:36.725Z,10.47
2018-08-04T07:11:05.101Z,10.70
2018-08-04T07:13:33.544Z,9.33
2018-08-04T07:16:01.983Z,9.80
2018-08-04T07:18:30.370Z,10.70
2018-08-04T07:20:58.685Z,10.97
2018-08-04T07:23:27.041Z,9.53
2018-08-04T07:25:55.382Z,10.80
2018-08-04T07:28:23.793Z,10.70
2018-08-04T07:30:52.105Z,10.10
2018-08-04T07:33:20.547Z,11.00
2018-08-04T07:35:48.897Z,11.30
2018-08-04T07:38:17.234Z,13.10
2018-08-04T07:40:45.608Z,11.53
2018-08-04T07:43:13.998Z,10.43
2018-08-04T07:45:42.629Z,11.20
2018-08-04T07:48:11.096Z,12.10
2018-08-04T07:50:39.598Z,12.30
2018-08-04T07:53:07.958Z,11.57
2018-08-04T07:55:36.451Z,13.70
2018-08-04T07:58:05.052Z,11.33
2018-08-04T08:00:33.457Z,12.73
2018-08-04T08:03:01.888Z,12.20
2018-08-04T08:05:30.236Z,11.23
2018-08-04T08:07:58.603Z,11.50
2018-08-04T08:10:27.087Z,12.17
2018-08-04T08:12:55.384Z,12.33
2018-08-04T08:15:23.850Z,12.00
2018-08-04T08:17:52.258Z,15.57
2018-08-04T08:20:20.682Z,30.10
2018-08-04T08:22:49.022Z,22.13
2018-08-04T08:25:17.431Z,13.30
2018-08-04T08:27:45.755Z,11.90
2018-08-04T08:30:15.078Z,11.53
2018-08-04T08:32:43.498Z,12.97
2018-08-04T08:35:12.097Z,11.30
2018-08-04T08:37:40.879Z,12.50
2018-08-04T08:40:09.775Z,12.47
2018-08-04T08:42:37.866Z,13.50
2018-08-04T08:45:08.061Z,13.60
2018-08-04T08:47:36.461Z,12.80
2018-08-04T08:50:08.293Z,14.20
2018-08-04T08:52:37.192Z,15.30
2018-08-04T08:55:06.277Z,12.83
2018-08-04T08:57:34.677Z,13.30
2018-08-04T09:00:03.617Z,13.80
2018-08-04T09:02:32.025Z,12.73
2018-08-04T09:05:00.638Z,13.30
2018-08-04T09:07:28.994Z,12.97
2018-08-04T09:09:57.396Z,13.93
2018-08-04T09:12:25.796Z,14.13
2018-08-04T09:14:54.278Z,13.40
2018-08-04T09:17:22.695Z,14.93
2018-08-04T09:19:51.028Z,17.30
2018-08-04T09:22:19.408Z,14.27
2018-08-04T09:24:47.714Z,15.87
2018-08-04T09:27:16.056Z,14.17
2018-08-04T09:29:44.402Z,16.83
2018-08-04T09:32:12.761Z,13.50
2018-08-04T09:34:41.122Z,13.87
2018-08-04T09:37:09.812Z,14.70
2018-08-04T09:39:38.187Z,14.30
2018-08-04T09:42:06.833Z,14.97
2018-08-04T09:44:35.175Z,14.47
2018-08-04T09:47:03.542Z,14.60
2018-08-04T09:49:31.849Z,15.10
2018-08-04T09:52:00.246Z,16.30
2018-08-04T09:54:28.554Z,14.47
2018-08-04T09:56:56.929Z,15.23
2018-08-04T09:59:25.227Z,14.60
2018-08-04T10:02:24.723Z,15.50
2018-08-04T10:04:53.722Z,15.63
2018-08-04T10:07:22.190Z,14.30
2018-08-04T10:09:51.042Z,14.40
2018-08-04T10:12:19.461Z,13.80
2018-08-04T10:14:47.940Z,15.03
2018-08-04T10:17:16.289Z,14.43
2018-08-04T10:19:44.656Z,15.53
2018-08-04T10:22:13.633Z,14.80
2018-08-04T10:24:42.070Z,13.90
2018-08-04T10:27:10.721Z,14.30
2018-08-04T10:29:38.878Z,14.80
2018-08-04T10:32:07.546Z,14.07
2018-08-04T10:34:35.645Z,14.40
2018-08-04T10:37:03.991Z,16.13
2018-08-04T10:39:33.025Z,14.70
2018-08-04T10:42:01.395Z,15.27
2018-08-04T10:44:29.811Z,20.73
2018-08-04T10:46:58.157Z,15.77
2018-08-04T10:49:26.527Z,14.50
2018-08-04T10:51:54.858Z,15.23
2018-08-04T10:54:23.178Z,14.27
2018-08-04T10:56:51.530Z,15.23
2018-08-04T10:59:20.430Z,15.17
2018-08-04T11:01:48.749Z,14.40
2018-08-04T11:04:17.101Z,14.30
2018-08-04T11:06:45.429Z,13.60
2018-08-04T11:09:13.749Z,13.93
2018-08-04T11:11:42.247Z,15.93
2018-08-04T11:14:11.090Z,15.40
2018-08-04T11:16:39.520Z,14.37
2018-08-04T11:19:08.022Z,14.17
2018-08-04T11:21:36.406Z,15.43
2018-08-04T11:24:04.736Z,16.23
2018-08-04T11:26:33.089Z,14.00
2018-08-04T11:29:01.351Z,13.53
2018-08-04T11:31:29.701Z,13.80
2018-08-04T11:33:58.068Z,14.13
2018-08-04T11:36:26.492Z,12.97
2018-08-04T11:38:54.894Z,14.10
2018-08-04T11:41:23.228Z,13.47
2018-08-04T11:43:51.626Z,13.80
2018-08-04T11:46:20.138Z,14.57
2018-08-04T11:48:48.458Z,14.30
2018-08-04T11:51:16.789Z,14.20
2018-08-04T11:53:45.166Z,15.40
2018-08-04T11:56:13.637Z,13.33
2018-08-04T11:58:42.078Z,13.60
2018-08-04T12:01:10.532Z,13.97
2018-08-04T12:03:38.874Z,13.63
2018-08-04T12:06:07.230Z,14.33
2018-08-04T12:08:35.582Z,14.43
2018-08-04T12:11:04.025Z,14.67
2018-08-04T12:13:32.342Z,13.60
2018-08-04T12:16:00.715Z,14.17
2018-08-04T12:18:29.087Z,14.90
2018-08-04T12:20:57.500Z,14.10
2018-08-04T12:23:25.832Z,15.40
2018-08-04T12:25:54.148Z,15.37
2018-08-04T12:28:22.571Z,15.20
2018-08-04T12:30:51.026Z,14.13
2018-08-04T12:33:19.374Z,13.07
2018-08-04T12:35:47.691Z,12.97
2018-08-04T12:38:16.055Z,13.10
2018-08-04T12:40:44.365Z,13.17
2018-08-04T12:43:12.734Z,13.03
2018-08-04T12:45:41.066Z,15.20
2018-08-04T12:48:09.467Z,12.80
2018-08-04T12:50:37.860Z,13.20
2018-08-04T12:53:06.297Z,12.20
2018-08-04T12:55:34.663Z,13.37
2018-08-04T12:58:03.066Z,14.70
2018-08-04T13:00:31.530Z,14.00
2018-08-04T13:02:59.836Z,12.80
2018-08-04T13:05:28.215Z,13.90
2018-08-04T13:07:56.572Z,13.93
2018-08-04T13:10:24.935Z,13.60
2018-08-04T13:12:53.808Z,13.30
2018-08-04T13:15:22.218Z,13.00
2018-08-04T13:17:50.629Z,13.50
2018-08-04T13:20:18.984Z,12.97
2018-08-04T13:22:47.309Z,14.80
2018-08-04T13:25:15.635Z,18.40
2018-08-04T13:27:43.966Z,20.80
2018-08-04T13:30:12.382Z,13.97
2018-08-04T13:32:40.725Z,14.73
2018-08-04T13:35:09.088Z,13.50
2018-08-04T13:37:37.419Z,13.87
2018-08-04T13:40:05.848Z,14.30
2018-08-04T13:42:34.208Z,14.23
2018-08-04T13:45:02.847Z,20.23
2018-08-04T13:47:30.879Z,22.23
2018-08-04T13:49:59.244Z,21.07
2018-08-04T13:52:27.643Z,20.97
2018-08-04T13:54:56.034Z,18.57
2018-08-04T13:57:24.373Z,19.20
2018-08-04T13:59:52.701Z,18.70
2018-08-04T14:02:21.109Z,15.73
2018-08-04T14:04:49.433Z,15.97
2018-08-04T14:07:17.782Z,20.07
2018-08-04T14:09:46.157Z,13.27
2018-08-04T14:12:14.527Z,12.57
2018-08-04T14:14:42.841Z,12.03
2018-08-04T14:17:11.242Z,14.33
2018-08-04T14:19:40.005Z,16.43
2018-08-04T14:22:08.460Z,15.43
2018-08-04T14:24:36.798Z,16.03
2018-08-04T14:27:05.319Z,17.70
2018-08-04T14:29:33.638Z,17.53
2018-08-04T14:32:02.152Z,15.60
2018-08-04T14:34:30.546Z,15.53
2018-08-04T14:36:58.932Z,15.70
2018-08-04T14:39:27.301Z,15.50
2018-08-04T14:41:55.774Z,16.33
2018-08-04T14:44:24.151Z,15.07
2018-08-04T14:46:52.498Z,15.20
2018-08-04T14:49:20.854Z,14.70
2018-08-04T14:51:49.550Z,16.53
2018-08-04T14:54:17.920Z,32.33
2018-08-04T14:56:46.252Z,14.67
2018-08-04T14:59:14.644Z,15.43
2018-08-04T15:01:42.953Z,17.20
2018-08-04T15:04:11.365Z,14.70
2018-08-04T15:06:39.946Z,14.77
2018-08-04T15:09:10.365Z,15.00
2018-08-04T15:11:38.683Z,14.90
2018-08-04T15:14:07.043Z,15.63
2018-08-04T15:16:35.399Z,14.93
2018-08-04T15:19:04.141Z,15.40
2018-08-04T15:21:32.579Z,13.57
2018-08-04T15:24:01.140Z,14.13
2018-08-04T15:26:29.677Z,13.00
2018-08-04T15:28:58.108Z,16.10
2018-08-04T15:31:26.536Z,13.33
2018-08-04T15:33:54.997Z,14.23
2018-08-04T15:36:23.363Z,12.67
2018-08-04T15:38:51.742Z,13.63
2018-08-04T15:41:20.107Z,14.10
2018-08-04T15:43:48.523Z,13.80
2018-08-04T15:46:17.081Z,13.30
2018-08-04T15:48:45.730Z,13.13
2018-08-04T15:51:13.792Z,13.87
2018-08-04T15:53:42.138Z,12.90
2018-08-04T15:56:10.498Z,11.47
2018-08-04T15:58:38.830Z,11.70
2018-08-04T16:01:07.325Z,11.80
2018-08-04T16:03:35.827Z,13.70
2018-08-04T16:06:04.322Z,12.33
2018-08-04T16:08:32.652Z,12.83
2018-08-04T16:11:01.114Z,12.83
2018-08-04T16:13:33.838Z,12.17
2018-08-04T16:16:02.182Z,11.43
2018-08-04T16:18:30.569Z,11.60
2018-08-04T16:20:58.969Z,10.67
2018-08-04T16:23:27.325Z,11.77
2018-08-04T16:25:55.699Z,12.00
2018-08-04T16:28:24.148Z,12.53
2018-08-04T16:30:52.470Z,11.33
2018-08-04T16:33:20.577Z,11.23
2018-08-04T16:35:48.995Z,11.50
2018-08-04T16:38:17.323Z,11.60
2018-08-04T16:40:45.666Z,12.23
2018-08-04T16:43:14.610Z,12.30
2018-08-04T16:45:49.878Z,12.53
2018-08-04T16:48:18.217Z,12.40
2018-08-04T16:50:46.534Z,11.80
2018-08-04T16:53:14.915Z,10.80
2018-08-04T16:55:43.305Z,12.90
2018-08-04T16:58:11.680Z,11.20
2018-08-04T17:00:40.081Z,11.83
2018-08-04T17:03:08.616Z,11.53
2018-08-04T17:05:36.955Z,10.37
2018-08-04T17:08:06.100Z,11.80
2018-08-04T17:10:34.457Z,11.33
2018-08-04T17:13:02.900Z,11.67
2018-08-04T17:15:31.822Z,12.23
2018-08-04T17:18:00.204Z,13.43
2018-08-04T17:20:28.347Z,12.10
2018-08-04T17:22:57.012Z,10.73
2018-08-04T17:25:25.778Z,11.80
2018-08-04T17:27:54.435Z,11.63
2018-08-04T17:30:22.841Z,11.17
2018-08-04T17:32:51.272Z,12.50
2018-08-04T17:35:19.669Z,11.27
2018-08-04T17:37:48.109Z,11.80
2018-08-04T17:40:16.531Z,12.43
2018-08-04T17:42:44.900Z,11.87
2018-08-04T17:45:13.304Z,11.50
2018-08-04T17:47:41.716Z,11.20
2018-08-04T17:50:10.146Z,11.17
2018-08-04T17:52:38.534Z,10.10
2018-08-04T17:55:07.018Z,9.43
2018-08-04T17:57:35.386Z,11.53
2018-08-04T18:00:03.882Z,13.00
2018-08-04T18:02:32.750Z,12.67
2018-08-04T18:05:01.146Z,10.17
2018-08-04T18:07:29.604Z,9.57
2018-08-04T18:09:58.011Z,10.20
2018-08-04T18:12:26.377Z,8.70
2018-08-04T18:14:54.758Z,7.30
2018-08-04T18:17:23.150Z,8.20
2018-08-04T18:19:51.555Z,8.10
2018-08-04T18:22:20.315Z,7.27
2018-08-04T18:24:48.689Z,7.77
2018-08-04T18:27:17.039Z,14.90
2018-08-04T18:29:45.571Z,6.50
2018-08-04T18:32:18.003Z,8.40
2018-08-04T18:34:46.328Z,7.33
2018-08-04T18:37:14.673Z,15.63
2018-08-04T18:39:43.665Z,11.43
2018-08-04T18:42:12.028Z,7.00
2018-08-04T18:44:40.447Z,6.40
2018-08-04T18:47:09.146Z,9.17
2018-08-04T18:49:37.518Z,8.93
2018-08-04T18:52:05.924Z,7.00
2018-08-04T18:54:34.446Z,7.30
2018-08-04T18:57:02.799Z,6.43
2018-08-04T18:59:31.248Z,5.80
2018-08-04T19:01:59.578Z,6.37
2018-08-04T19:04:27.906Z,7.10
2018-08-04T19:06:56.348Z,6.07
2018-08-04T19:09:24.769Z,6.40
2018-08-04T19:11:53.226Z,6.00
2018-08-04T19:14:21.575Z,6.10
2018-08-04T19:16:49.945Z,5.77
2018-08-04T19:19:18.490Z,8.73
2018-08-04T19:21:46.834Z,5.37
2018-08-04T19:24:15.756Z,5.80
2018-08-04T19:26:44.156Z,5.50
2018-08-04T19:29:12.531Z,6.70
2018-08-04T19:31:40.899Z,5.63
2018-08-04T19:34:09.349Z,6.10
2018-08-04T19:36:37.710Z,5.60
2018-08-04T19:39:07.853Z,4.90
2018-08-04T19:41:36.219Z,5.27
2018-08-04T19:44:04.578Z,5.07
2018-08-04T19:46:32.730Z,5.37
2018-08-04T19:49:01.791Z,6.07
2018-08-04T19:51:30.167Z,7.40
2018-08-04T19:53:58.594Z,4.97
2018-08-04T19:56:27.606Z,5.70
2018-08-04T19:58:55.957Z,5.83
2018-08-04T20:01:24.454Z,5.10
2018-08-04T20:03:52.900Z,5.73
2018-08-04T20:06:21.289Z,4.53
2018-08-04T20:08:49.641Z,4.60
2018-08-04T20:11:18.387Z,4.80
2018-08-04T20:13:46.759Z,5.07
2018-08-04T20:16:15.211Z,4.20
2018-08-04T20:18:43.676Z,4.43
2018-08-04T20:21:12.120Z,5.20
2018-08-04T20:23:40.531Z,4.50
2018-08-04T20:26:08.923Z,4.57
2018-08-04T20:28:37.329Z,5.07
2018-08-04T20:31:05.752Z,4.07
2018-08-04T20:33:34.169Z,3.57
2018-08-04T20:36:02.667Z,7.00
2018-08-04T20:38:30.724Z,3.40
2018-08-04T20:40:59.099Z,3.13
2018-08-04T20:43:34.007Z,4.97
2018-08-04T20:46:02.407Z,3.60
2018-08-04T20:48:30.786Z,3.93
2018-08-04T20:50:59.650Z,3.57
2018-08-04T20:53:28.028Z,3.83
2018-08-04T20:55:56.490Z,3.60
2018-08-04T20:58:24.903Z,7.93
2018-08-04T21:01:04.533Z,4.23
2018-08-04T21:03:32.826Z,3.17
2018-08-04T21:06:01.285Z,3.40
2018-08-04T21:08:29.598Z,3.73
2018-08-04T21:10:58.104Z,3.53
2018-08-04T21:13:26.464Z,3.83
2018-08-04T21:15:54.790Z,6.73
2018-08-04T21:18:23.123Z,5.93
2018-08-04T21:20:51.455Z,3.13
2018-08-04T21:23:19.809Z,3.87
2018-08-04T21:25:48.534Z,3.50
2018-08-04T21:28:16.942Z,2.80
2018-08-04T21:30:45.566Z,3.20
2018-08-04T21:33:14.458Z,3.70
2018-08-04T21:35:42.816Z,3.87
2018-08-04T21:38:10.837Z,3.13
2018-08-04T21:40:39.183Z,3.50
2018-08-04T21:43:07.711Z,7.40
2018-08-04T21:45:36.243Z,2.70
2018-08-04T21:48:04.799Z,3.70
2018-08-04T21:50:33.255Z,4.60
2018-08-04T21:53:01.700Z,3.50
2018-08-04T21:55:30.078Z,3.27
2018-08-04T21:57:58.497Z,3.80
2018-08-04T22:00:26.970Z,4.90
2018-08-04T22:02:59.226Z,3.50
2018-08-04T22:05:28.701Z,3.47
2018-08-04T22:08:09.381Z,3.70
2018-08-04T22:10:38.009Z,4.03
2018-08-04T22:13:06.902Z,2.90
2018-08-04T22:15:35.504Z,3.50
2018-08-04T22:18:04.005Z,4.93
2018-08-04T22:20:32.377Z,3.27
2018-08-04T22:23:00.791Z,3.43
2018-08-04T22:25:30.175Z,3.50
2018-08-04T22:27:59.854Z,4.47
2018-08-04T22:30:28.289Z,2.90
2018-08-04T22:32:56.703Z,2.67
2018-08-04T22:35:25.586Z,3.10
2018-08-04T22:37:54.002Z,3.10
2018-08-04T22:40:22.705Z,3.70
2018-08-04T22:42:51.072Z,3.17
2018-08-04T22:46:22.742Z,2.83
2018-08-04T22:48:52.170Z,3.30
2018-08-04T22:51:35.255Z,3.20
2018-08-04T22:54:03.739Z,2.93
2018-08-04T22:56:32.366Z,3.20
2018-08-04T22:59:00.745Z,3.23
2018-08-04T23:01:29.103Z,4.13
2018-08-04T23:03:58.097Z,3.10
2018-08-04T23:06:34.839Z,3.57
2018-08-04T23:09:03.903Z,2.87
2018-08-04T23:11:32.303Z,3.30
2018-08-04T23:14:00.636Z,2.83
2018-08-04T23:16:28.979Z,2.60
2018-08-04T23:18:57.333Z,6.33
2018-08-04T23:21:25.678Z,3.83
2018-08-04T23:23:54.064Z,2.97
2018-08-04T23:26:22.478Z,3.60
2018-08-04T23:28:50.779Z,2.83
2018-08-04T23:31:19.123Z,3.13
2018-08-04T23:33:47.462Z,3.10
2018-08-04T23:36:15.850Z,2.80
2018-08-04T23:38:44.515Z,2.70
2018-08-04T23:41:12.869Z,2.37
2018-08-04T23:43:41.229Z,3.87
2018-08-04T23:46:09.620Z,3.23
2018-08-04T23:48:37.959Z,3.07
2018-08-04T23:51:06.010Z,3.40
2018-08-04T23:53:34.658Z,6.07
2018-08-04T23:56:03.226Z,4.77
2018-08-04T23:58:31.566Z,4.27
